Time;durP1;ratioP1;P1;durP2;ratioP2;P2;SDS_P1;SDS_P2;PMS_P1;PMS_P2;Temp;Humidity;BMP_temperature;BMP_pressure;BME280_temperature;BME280_humidity;BME280_pressure;Samples;Min_cycle;Max_cycle;Signal;HPM_P1;HPM_P2
2023/08/07 00:00:28;;;;;;;9.23;5.35;;;461.70;2380.80;;;;;;5073436;28;20032;-83
2023/08/07 00:02:53;;;;;;;9.02;4.65;;;461.70;2380.80;;;;;;5072284;28;20119;-82
2023/08/07 00:05:19;;;;;;;7.25;4.88;;;486.40;2380.80;;;;;;5072372;28;20480;-81
2023/08/07 00:07:45;;;;;;;8.43;5.45;;;486.50;2380.80;;;;;;5072416;28;20036;-82
2023/08/07 00:10:13;;;;;;;6.15;4.70;;;486.50;2380.80;;;;;;5071874;28;20483;-82
2023/08/07 00:12:38;;;;;;;6.50;5.35;;;486.60;2380.80;;;;;;5072553;28;20471;-82
2023/08/07 00:15:05;;;;;;;7.78;5.20;;;486.50;2380.80;;;;;;5072070;28;20049;-82
2023/08/07 00:17:31;;;;;;;5.80;5.18;;;486.40;2380.80;;;;;;5072085;28;20436;-82
2023/08/07 00:19:57;;;;;;;11.73;5.50;;;461.70;2380.80;;;;;;5073473;28;20024;-81
2023/08/07 00:22:25;;;;;;;8.35;5.65;;;461.60;2380.80;;;;;;5072142;28;20079;-82
2023/08/07 00:24:50;;;;;;;7.07;5.47;;;461.60;2380.80;;;;;;5072058;28;20456;-83
2023/08/07 00:27:16;;;;;;;6.90;5.75;;;461.50;2380.80;;;;;;5072341;28;20063;-82
2023/08/07 00:29:42;;;;;;;8.25;5.68;;;486.40;2380.80;;;;;;5073245;28;20020;-83
2023/08/07 00:32:08;;;;;;;9.73;5.53;;;461.70;2380.80;;;;;;5072234;28;20021;-83
2023/08/07 00:34:34;;;;;;;9.80;6.30;;;461.50;2380.80;;;;;;5072411;28;20031;-83
2023/08/07 00:37:00;;;;;;;6.57;5.88;;;461.50;2380.80;;;;;;5071914;28;20115;-82
2023/08/07 00:39:26;;;;;;;9.23;5.72;;;461.30;2380.80;;;;;;5075487;28;20032;-83
2023/08/07 00:41:51;;;;;;;8.00;5.43;;;461.30;2380.80;;;;;;5076036;28;20021;-83
2023/08/07 00:44:17;;;;;;;7.97;5.57;;;461.50;2380.80;;;;;;5075852;28;20032;-83
2023/08/07 00:46:43;;;;;;;7.70;5.70;;;461.50;2380.80;;;;;;5075968;28;20154;-84
2023/08/07 00:49:11;;;;;;;7.53;6.22;;;461.50;2380.80;;;;;;5075789;28;20027;-84
2023/08/07 00:51:38;;;;;;;6.53;5.35;;;461.50;2380.80;;;;;;5075414;28;20025;-83
2023/08/07 00:54:05;;;;;;;6.78;5.50;;;461.50;2380.80;;;;;;5075602;28;20029;-83
2023/08/07 00:56:32;;;;;;;9.85;5.40;;;461.60;2380.80;;;;;;5074934;28;20024;-84
2023/08/07 00:59:01;;;;;;;7.72;5.80;;;486.40;2380.80;;;;;;5094656;28;20029;-84
2023/08/07 01:01:27;;;;;;;6.32;5.55;;;461.70;2380.80;;;;;;5096085;28;20020;-84
2023/08/07 01:03:54;;;;;;;10.98;5.25;;;461.60;2380.80;;;;;;5097162;28;20464;-80
2023/08/07 01:06:20;;;;;;;8.13;5.97;;;461.60;2380.80;;;;;;5095832;28;20499;-80
2023/08/07 01:08:46;;;;;;;8.23;6.10;;;461.60;2380.80;;;;;;5095734;28;20519;-81
2023/08/07 01:11:34;;;;;;;7.53;5.68;;;461.60;2380.80;;;;;;5094838;28;20032;-81
2023/08/07 01:14:03;;;;;;;9.18;5.60;;;;;;;;;;5097096;28;20094;-82
2023/08/07 01:16:44;;;;;;;6.75;6.00;;;461.70;2380.80;;;;;;5095704;28;20533;-81
2023/08/07 01:19:25;;;;;;;7.60;6.30;;;461.60;2380.80;;;;;;5095455;28;20108;-82
2023/08/07 01:22:03;;;;;;;8.43;6.30;;;461.30;2380.80;;;;;;5095759;28;20028;-82
2023/08/07 01:24:29;;;;;;;9.20;6.50;;;461.30;2380.80;;;;;;5095675;28;20024;-82
2023/08/07 01:27:02;;;;;;;12.32;6.22;;;461.40;2380.80;;;;;;5091412;28;20085;-83
2023/08/07 01:29:36;;;;;;;9.88;5.93;;;461.20;2380.80;;;;;;5092220;28;20025;-81
2023/08/07 01:32:05;;;;;;;9.57;5.78;;;461.20;2380.80;;;;;;5076738;28;20024;-80
2023/08/07 01:34:32;;;;;;;8.27;6.10;;;461.40;2380.80;;;;;;5076272;28;20453;-81
2023/08/07 01:37:00;;;;;;;10.65;5.78;;;461.40;2380.80;;;;;;5091884;28;20028;-82
2023/08/07 01:39:27;;;;;;;10.60;6.78;;;461.40;2380.80;;;;;;5076159;28;20035;-81
2023/08/07 01:41:53;;;;;;;10.20;6.38;;;461.30;2380.80;;;;;;5091669;28;20028;-81
2023/08/07 01:44:19;;;;;;;12.52;6.70;;;461.20;2380.80;;;;;;5091835;28;20024;-82
2023/08/07 01:46:44;;;;;;;8.73;6.30;;;461.30;2380.80;;;;;;5091588;28;20131;-83
2023/08/07 01:49:10;;;;;;;8.68;5.85;;;461.30;2380.80;;;;;;5090917;28;20025;-81
2023/08/07 01:51:36;;;;;;;9.23;6.15;;;461.40;2380.80;;;;;;5091139;28;20029;-82
2023/08/07 01:54:02;;;;;;;7.43;5.15;;;461.40;2380.80;;;;;;5091553;28;20024;-82
2023/08/07 01:56:28;;;;;;;9.35;6.53;;;461.50;2380.80;;;;;;5091770;28;20052;-82
2023/08/07 01:58:54;;;;;;;11.50;6.35;;;461.50;2380.80;;;;;;5091691;28;20055;-81
2023/08/07 02:01:19;;;;;;;8.27;6.88;;;461.30;2380.80;;;;;;5075302;28;20029;-82
2023/08/07 02:03:45;;;;;;;10.98;6.93;;;461.10;2380.80;;;;;;5075753;28;20032;-82
2023/08/07 02:06:11;;;;;;;9.10;6.95;;;460.80;2380.80;;;;;;5075453;28;20031;-82
2023/08/07 02:08:37;;;;;;;10.65;7.15;;;;;;;;;;5090968;28;20067;-84
2023/08/07 02:11:03;;;;;;;12.25;6.97;;;;;;;;;;5091208;28;20063;-84
2023/08/07 02:13:29;;;;;;;9.52;6.75;;;435.80;2355.20;;;;;;5090986;28;20044;-83
2023/08/07 02:15:54;;;;;;;8.98;6.22;;;435.80;2355.20;;;;;;5074151;28;20377;-82
2023/08/07 02:18:20;;;;;;;12.32;5.78;;;435.90;2355.20;;;;;;5073848;28;20400;-82
2023/08/07 02:20:46;;;;;;;10.82;6.82;;;;;;;;;;5091009;28;20040;-81
2023/08/07 02:23:12;;;;;;;9.30;5.35;;;435.50;2355.20;;;;;;5075024;28;20021;-82
2023/08/07 02:25:38;;;;;;;9.65;5.25;;;435.60;2355.20;;;;;;5090895;28;20051;-82
2023/08/07 02:28:04;;;;;;;7.38;5.80;;;436.00;2355.20;;;;;;5074739;28;20099;-81
2023/08/07 02:30:31;;;;;;;6.90;5.15;;;460.80;2380.80;;;;;;5090573;28;20029;-82
2023/08/07 02:32:57;;;;;;;7.82;5.65;;;460.90;2380.80;;;;;;5090817;28;20556;-81
2023/08/07 02:35:22;;;;;;;12.10;6.28;;;461.00;2380.80;;;;;;5090772;28;20119;-81
2023/08/07 02:37:48;;;;;;;7.82;6.18;;;461.00;2380.80;;;;;;5090329;28;20068;-79
2023/08/07 02:40:15;;;;;;;11.13;6.45;;;460.90;2380.80;;;;;;5090539;28;20033;-81
2023/08/07 02:42:42;;;;;;;7.50;5.88;;;460.80;2380.80;;;;;;5090344;28;20029;-81
2023/08/07 02:45:08;;;;;;;10.68;6.10;;;460.90;2380.80;;;;;;5093164;28;20476;-81
2023/08/07 02:47:34;;;;;;;8.18;5.78;;;461.00;2380.80;;;;;;5113887;28;20011;-80
2023/08/07 02:49:59;;;;;;;10.65;6.13;;;460.90;2380.80;;;;;;5101316;28;20032;-82
2023/08/07 02:52:25;;;;;;;8.35;6.30;;;460.90;2380.80;;;;;;5095701;28;20028;-82
2023/08/07 02:54:51;;;;;;;6.97;5.93;;;435.80;2355.20;;;;;;5093949;28;20029;-82
2023/08/07 02:57:17;;;;;;;8.07;6.30;;;435.70;2355.20;;;;;;5093468;28;20032;-82
2023/08/07 02:59:42;;;;;;;8.15;5.85;;;435.80;2355.20;;;;;;5093601;28;20100;-82
2023/08/07 03:02:08;;;;;;;13.32;6.28;;;435.90;2355.20;;;;;;5093246;28;20031;-82
2023/08/07 03:04:34;;;;;;;9.05;5.40;;;435.80;2355.20;;;;;;5093700;28;20028;-81
2023/08/07 03:07:00;;;;;;;6.80;5.10;;;436.00;2355.20;;;;;;5093541;28;20028;-80
2023/08/07 03:09:26;;;;;;;10.75;5.82;;;436.00;2355.20;;;;;;5093464;28;20031;-81
2023/08/07 03:11:52;;;;;;;7.13;5.97;;;436.10;2355.20;;;;;;5092525;28;20123;-81
2023/08/07 03:14:18;;;;;;;13.73;6.13;;;436.00;2355.20;;;;;;5094972;28;20040;-82
2023/08/07 03:16:45;;;;;;;12.77;5.72;;;435.80;2355.20;;;;;;5094617;28;20028;-82
2023/08/07 03:19:11;;;;;;;10.23;6.97;;;435.70;2355.20;;;;;;5093091;28;20024;-82
2023/08/07 03:21:36;;;;;;;8.45;6.18;;;435.40;2355.20;;;;;;5093448;28;20399;-82
2023/08/07 03:24:02;;;;;;;9.45;6.10;;;435.30;2355.20;;;;;;5093161;28;20106;-81
2023/08/07 03:26:28;;;;;;;12.65;6.28;;;435.50;2355.20;;;;;;5092786;28;20020;-82
2023/08/07 03:28:54;;;;;;;12.18;5.88;;;435.80;2355.20;;;;;;5094368;28;20099;-81
2023/08/07 03:31:19;;;;;;;9.88;6.63;;;435.90;2355.20;;;;;;5093006;28;20044;-82
2023/08/07 03:33:45;;;;;;;9.27;5.82;;;435.80;2355.20;;;;;;5093064;28;20032;-82
2023/08/07 03:36:11;;;;;;;9.00;6.00;;;435.90;2355.20;;;;;;5094460;28;20028;-80
2023/08/07 03:38:37;;;;;;;9.80;5.55;;;435.90;2355.20;;;;;;5092929;28;20076;-82
2023/08/07 03:41:03;;;;;;;15.45;6.15;;;436.00;2355.20;;;;;;5092954;28;20063;-83
2023/08/07 03:43:29;;;;;;;11.13;6.25;;;436.10;2355.20;;;;;;5093060;28;20372;-81
2023/08/07 03:45:58;;;;;;;17.80;8.98;;;435.90;2355.20;;;;;;5092641;28;20028;-82
2023/08/07 03:48:24;;;;;;;16.85;7.43;;;435.90;2355.20;;;;;;5092987;28;20032;-83
2023/08/07 03:50:49;;;;;;;13.38;7.93;;;435.60;2355.20;;;;;;5094188;28;20031;-84
2023/08/07 03:53:15;;;;;;;16.45;7.85;;;435.30;2355.20;;;;;;5092760;28;20027;-83
2023/08/07 03:55:41;;;;;;;18.55;9.27;;;410.50;2355.20;;;;;;5093105;28;20475;-83
2023/08/07 03:58:08;;;;;;;10.63;7.13;;;410.40;2355.20;;;;;;5090742;28;20077;-82
2023/08/07 04:00:33;;;;;;;10.82;6.38;;;435.40;2355.20;;;;;;5092249;28;20032;-83
2023/08/07 04:02:59;;;;;;;9.93;7.10;;;435.60;2355.20;;;;;;5094039;28;20035;-83
2023/08/07 04:05:25;;;;;;;13.23;6.70;;;435.50;2355.20;;;;;;5092868;28;20020;-83
2023/08/07 04:07:51;;;;;;;9.32;7.05;;;435.60;2355.20;;;;;;5092679;28;20031;-82
2023/08/07 04:10:16;;;;;;;12.45;7.40;;;435.70;2355.20;;;;;;5092779;28;20081;-82
2023/08/07 04:12:42;;;;;;;15.40;7.60;;;435.80;2355.20;;;;;;5093252;28;20115;-82
2023/08/07 04:15:09;;;;;;;11.95;7.13;;;435.80;2355.20;;;;;;5096713;28;20392;-82
2023/08/07 04:17:36;;;;;;;10.15;7.72;;;435.80;2355.20;;;;;;5096600;28;20028;-82
2023/08/07 04:20:03;;;;;;;11.75;8.18;;;435.80;2355.20;;;;;;5096586;28;20368;-83
2023/08/07 04:22:29;;;;;;;14.63;8.32;;;435.60;2355.20;;;;;;5096701;28;20032;-84
2023/08/07 04:24:54;;;;;;;11.18;8.63;;;435.30;2355.20;;;;;;5096617;28;20586;-83
2023/08/07 04:27:20;;;;;;;10.82;8.07;;;435.30;2355.20;;;;;;5097822;28;20028;-82
2023/08/07 04:29:46;;;;;;;14.23;7.50;;;435.50;2355.20;;;;;;5096291;28;20032;-83
2023/08/07 04:32:12;;;;;;;9.55;6.68;;;435.50;2355.20;;;;;;5096774;28;20040;-82
2023/08/07 04:34:37;;;;;;;9.57;8.50;;;435.60;2355.20;;;;;;5096298;28;20024;-83
2023/08/07 04:37:05;;;;;;;11.98;7.68;;;435.60;2355.20;;;;;;5096297;28;20544;-82
2023/08/07 04:39:32;;;;;;;8.35;7.32;;;435.60;2355.20;;;;;;5097790;28;20024;-83
2023/08/07 04:41:57;;;;;;;9.57;7.03;;;435.70;2355.20;;;;;;5096171;28;20043;-82
2023/08/07 04:44:23;;;;;;;8.35;7.00;;;435.80;2355.20;;;;;;5096372;28;20020;-83
2023/08/07 04:46:49;;;;;;;9.43;8.43;;;435.70;2355.20;;;;;;5097556;28;20028;-83
2023/08/07 04:49:15;;;;;;;13.48;7.80;;;435.90;2355.20;;;;;;5095992;28;20062;-83
2023/08/07 04:51:40;;;;;;;11.35;6.90;;;436.10;2355.20;;;;;;5096274;28;20028;-82
2023/08/07 04:54:06;;;;;;;10.70;7.35;;;436.10;2355.20;;;;;;5096213;28;20456;-83
2023/08/07 04:56:32;;;;;;;12.73;8.48;;;436.10;2355.20;;;;;;5095900;28;20483;-82
2023/08/07 04:58:58;;;;;;;9.90;7.57;;;436.10;2355.20;;;;;;5096078;28;20387;-82
2023/08/07 05:01:23;;;;;;;16.23;7.97;;;436.10;2355.20;;;;;;5096115;28;20057;-82
2023/08/07 05:03:49;;;;;;;12.50;7.40;;;436.00;2355.20;;;;;;5096080;28;20028;-83
2023/08/07 05:06:15;;;;;;;10.75;7.25;;;436.10;2355.20;;;;;;5097673;28;20025;-82
2023/08/07 05:08:40;;;;;;;8.35;7.28;;;436.10;2355.20;;;;;;5101260;28;20099;-81
2023/08/07 05:11:06;;;;;;;10.45;7.82;;;436.10;2355.20;;;;;;5100805;28;20031;-82
2023/08/07 05:13:32;;;;;;;9.23;7.22;;;460.80;2380.80;;;;;;5102002;28;20044;-82
2023/08/07 05:15:58;;;;;;;12.15;7.32;;;460.80;2380.80;;;;;;5097498;28;20034;-82
2023/08/07 05:18:23;;;;;;;9.55;8.55;;;460.90;2380.80;;;;;;5095337;28;20031;-83
2023/08/07 05:20:49;;;;;;;9.77;8.38;;;460.90;2380.80;;;;;;5112546;28;20387;-82
2023/08/07 05:23:15;;;;;;;13.52;9.55;;;460.90;2380.80;;;;;;5096670;28;20024;-82
2023/08/07 05:25:41;;;;;;;12.40;9.73;;;460.90;2380.80;;;;;;5094705;28;20063;-81
2023/08/07 05:28:07;;;;;;;11.43;9.73;;;461.00;2380.80;;;;;;5095217;28;20028;-82
2023/08/07 05:30:33;;;;;;;15.68;10.68;;;460.90;2380.80;;;;;;5095270;28;20064;-82
2023/08/07 05:32:59;;;;;;;17.10;10.98;;;460.80;2380.80;;;;;;5096598;28;20047;-82
2023/08/07 05:35:25;;;;;;;19.50;12.38;;;460.80;2380.80;;;;;;5095423;28;20024;-84
2023/08/07 05:37:50;;;;;;;14.85;12.00;;;460.80;2380.80;;;;;;5096611;28;20153;-81
2023/08/07 05:40:16;;;;;;;18.20;12.20;;;460.90;2380.80;;;;;;5120557;28;20027;-82
2023/08/07 05:42:42;;;;;;;15.25;11.30;;;461.00;2380.80;;;;;;5097001;28;20024;-83
2023/08/07 05:45:10;;;;;;;15.60;12.50;;;461.10;2380.80;;;;;;5095266;28;20020;-83
2023/08/07 05:47:35;;;;;;;15.68;11.40;;;461.10;2380.80;;;;;;5096346;28;20586;-82
2023/08/07 05:50:01;;;;;;;19.02;12.23;;;461.20;2380.80;;;;;;5095158;28;20110;-82
2023/08/07 05:52:27;;;;;;;18.08;11.60;;;461.20;2380.80;;;;;;5095991;28;20024;-83
2023/08/07 05:54:53;;;;;;;18.33;11.05;;;461.20;2380.80;;;;;;5095088;28;20426;-83
2023/08/07 05:57:19;;;;;;;17.33;11.05;;;461.20;2380.80;;;;;;5095879;28;20053;-82
2023/08/07 05:59:45;;;;;;;14.23;10.00;;;461.20;2380.80;;;;;;5094587;28;20491;-82
2023/08/07 06:02:11;;;;;;;14.63;9.48;;;461.20;2380.80;;;;;;5095068;28;20073;-82
2023/08/07 06:04:37;;;;;;;15.68;10.48;;;461.20;2380.80;;;;;;5094509;28;20035;-82
2023/08/07 06:07:04;;;;;;;10.73;8.88;;;461.40;2380.80;;;;;;5094531;28;20077;-82
2023/08/07 06:09:30;;;;;;;12.52;8.32;;;461.40;2380.80;;;;;;5094543;28;20024;-82
2023/08/07 06:11:56;;;;;;;17.10;9.98;;;461.50;2380.80;;;;;;5095769;28;20034;-82
2023/08/07 06:14:22;;;;;;;13.73;7.60;;;461.40;2380.80;;;;;;5094070;28;20105;-82
2023/08/07 06:16:48;;;;;;;10.73;8.23;;;461.50;2380.80;;;;;;5095447;28;20028;-83
2023/08/07 06:19:14;;;;;;;9.85;7.43;;;461.50;2380.80;;;;;;5094507;28;20077;-82
2023/08/07 06:21:39;;;;;;;10.65;8.35;;;461.60;2380.80;;;;;;5094252;28;20058;-83
2023/08/07 06:24:05;;;;;;;9.25;6.32;;;461.60;2380.80;;;;;;5094440;28;20491;-81
2023/08/07 06:26:31;;;;;;;11.80;8.15;;;461.60;2380.80;;;;;;5094316;28;20479;-82
2023/08/07 06:28:57;;;;;;;8.98;7.78;;;461.60;2380.80;;;;;;5094720;28;20495;-83
2023/08/07 06:31:22;;;;;;;13.27;8.73;;;486.40;2380.80;;;;;;5111525;28;20521;-83
2023/08/07 06:33:49;;;;;;;9.35;8.32;;;486.50;2380.80;;;;;;5094266;28;20024;-83
2023/08/07 06:36:15;;;;;;;12.57;7.85;;;486.60;2380.80;;;;;;5093807;28;20029;-82
2023/08/07 06:38:41;;;;;;;9.93;8.25;;;486.60;2380.80;;;;;;5094251;28;20028;-82
2023/08/07 06:41:07;;;;;;;11.20;9.77;;;486.70;2380.80;;;;;;5093979;28;20521;-82
2023/08/07 06:43:32;;;;;;;11.27;7.65;;;486.80;2380.80;;;;;;5094022;28;20077;-82
2023/08/07 06:45:59;;;;;;;12.38;8.18;;;486.90;2380.80;;;;;;5095503;28;20031;-83
2023/08/07 06:48:24;;;;;;;10.55;7.72;;;487.00;2380.80;;;;;;5093930;28;20469;-82
2023/08/07 06:50:51;;;;;;;9.75;8.30;;;486.90;2380.80;;;;;;5093994;28;20020;-83
2023/08/07 06:53:17;;;;;;;13.80;8.98;;;486.90;2380.80;;;;;;5094068;28;20552;-82
2023/08/07 06:55:44;;;;;;;12.57;9.18;;;486.70;2380.80;;;;;;5093747;28;20094;-82
2023/08/07 06:58:10;;;;;;;13.15;9.27;;;486.90;2380.80;;;;;;5093765;28;20028;-83
2023/08/07 07:00:36;;;;;;;10.43;9.25;;;487.00;2380.80;;;;;;5094843;28;20035;-82
2023/08/07 07:03:02;;;;;;;11.23;8.55;;;487.10;2380.80;;;;;;5093774;28;20023;-82
2023/08/07 07:05:30;;;;;;;14.18;8.85;;;487.00;2380.80;;;;;;5093834;28;20028;-83
2023/08/07 07:07:56;;;;;;;11.07;8.48;;;487.00;2380.80;;;;;;5093674;28;20475;-83
2023/08/07 07:10:21;;;;;;;12.38;9.15;;;486.90;2380.80;;;;;;5093519;28;20020;-82
2023/08/07 07:12:48;;;;;;;10.80;9.65;;;486.80;2380.80;;;;;;5075176;28;20031;-83
2023/08/07 07:15:13;;;;;;;11.07;8.55;;;486.90;2380.80;;;;;;5073486;28;20020;-83
2023/08/07 07:17:39;;;;;;;10.35;9.23;;;487.00;2380.80;;;;;;5072793;28;20411;-82
2023/08/07 07:20:06;;;;;;;11.45;9.20;;;487.10;2380.80;;;;;;5073278;28;20460;-82
2023/08/07 07:22:32;;;;;;;12.40;11.10;;;487.00;2380.80;;;;;;5072848;28;20142;-83
2023/08/07 07:24:58;;;;;;;13.02;9.85;;;487.10;2380.80;;;;;;5090245;28;20056;-83
2023/08/07 07:27:25;;;;;;;13.43;10.57;;;487.10;2380.80;;;;;;5073201;28;20117;-82
2023/08/07 07:29:52;;;;;;;11.13;10.05;;;487.20;2380.80;;;;;;5073006;28;20024;-83
2023/08/07 07:32:18;;;;;;;19.20;11.25;;;487.10;2380.80;;;;;;5090306;28;20050;-82
2023/08/07 07:34:44;;;;;;;11.13;9.93;;;487.10;2380.80;;;;;;5073144;28;20029;-83
2023/08/07 07:37:10;;;;;;;12.07;10.77;;;487.20;2380.80;;;;;;5072747;28;20124;-83
2023/08/07 07:39:36;;;;;;;15.10;11.18;;;487.30;2380.80;;;;;;5090051;28;20028;-83
2023/08/07 07:42:04;;;;;;;11.60;10.43;;;487.30;2380.80;;;;;;5089839;28;20052;-83
2023/08/07 07:44:31;;;;;;;14.65;10.68;;;512.00;2380.80;;;;;;5093800;28;20062;-84
2023/08/07 07:46:56;;;;;;;14.65;11.52;;;487.30;2380.80;;;;;;5092553;28;20482;-83
2023/08/07 07:49:22;;;;;;;11.50;10.30;;;487.30;2380.80;;;;;;5093049;28;20023;-83
2023/08/07 07:51:49;;;;;;;11.35;10.02;;;487.30;2380.80;;;;;;5092998;28;20028;-83
2023/08/07 07:54:15;;;;;;;11.23;9.73;;;512.00;2380.80;;;;;;5093005;28;20020;-83
2023/08/07 07:56:41;;;;;;;12.32;11.13;;;512.00;2380.80;;;;;;5093060;28;20061;-84
2023/08/07 07:59:07;;;;;;;13.73;10.82;;;512.00;2380.80;;;;;;5092884;28;20464;-83
2023/08/07 08:01:33;;;;;;;14.73;10.00;;;512.00;2380.80;;;;;;5092965;28;20032;-83
2023/08/07 08:03:59;;;;;;;10.60;9.32;;;512.00;2380.80;;;;;;5092713;28;20024;-82
2023/08/07 08:06:24;;;;;;;11.18;10.07;;;512.00;2380.80;;;;;;5092683;28;20032;-84
2023/08/07 08:08:50;;;;;;;13.65;9.73;;;487.30;2380.80;;;;;;5092800;28;20038;-83
2023/08/07 08:11:16;;;;;;;10.48;9.40;;;487.30;2380.80;;;;;;5088359;28;20029;-83
2023/08/07 08:13:42;;;;;;;14.02;11.32;;;512.00;2380.80;;;;;;5072144;28;20052;-82
2023/08/07 08:16:07;;;;;;;14.00;10.82;;;487.30;2380.80;;;;;;5072783;28;20025;-82
2023/08/07 08:18:33;;;;;;;12.10;10.80;;;512.00;2380.80;;;;;;5089128;28;20120;-82
2023/08/07 08:20:59;;;;;;;11.23;9.90;;;512.10;2380.80;;;;;;5073961;28;20423;-83
2023/08/07 08:23:25;;;;;;;13.35;9.27;;;512.20;2380.80;;;;;;5072752;28;20479;-83
2023/08/07 08:25:51;;;;;;;11.60;9.65;;;512.40;2380.80;;;;;;5073786;28;20029;-82
2023/08/07 08:28:17;;;;;;;13.52;9.73;;;512.50;2380.80;;;;;;5072522;28;20032;-83
2023/08/07 08:30:43;;;;;;;11.70;10.50;;;512.40;2380.80;;;;;;5072254;28;20060;-83
2023/08/07 08:33:12;;;;;;;11.32;9.35;;;512.30;2380.80;;;;;;5094607;28;20035;-85
2023/08/07 08:35:38;;;;;;;12.43;9.77;;;512.40;2380.80;;;;;;5093765;28;20025;-84
2023/08/07 08:38:03;;;;;;;11.60;10.38;;;512.50;2380.80;;;;;;5074776;28;20032;-83
2023/08/07 08:40:30;;;;;;;11.63;9.07;;;512.70;2380.80;;;;;;5089323;28;20029;-84
2023/08/07 08:43:00;;;;;;;9.77;8.77;;;537.60;2406.40;;;;;;5072822;28;20120;-83
2023/08/07 08:45:27;;;;;;;12.30;11.00;;;537.80;2406.40;;;;;;5072401;28;20104;-83
2023/08/07 08:47:55;;;;;;;11.98;9.70;;;;;;;;;;5073756;28;20043;-83
2023/08/07 08:50:21;;;;;;;11.93;10.13;;;538.50;2406.40;;;;;;5073455;28;20027;-85
2023/08/07 08:52:50;;;;;;;12.30;10.75;;;538.50;2406.40;;;;;;5072285;28;20121;-82
2023/08/07 08:55:16;;;;;;;10.23;9.18;;;538.30;2406.40;;;;;;5089060;28;20035;-84
2023/08/07 08:57:42;;;;;;;11.52;9.32;;;538.40;2406.40;;;;;;5073508;28;20039;-82
2023/08/07 09:00:17;;;;;;;10.05;9.05;;;538.20;2406.40;;;;;;5074788;28;20100;-83
2023/08/07 09:02:45;;;;;;;11.35;8.50;;;538.20;2406.40;;;;;;5077119;28;20127;-83
2023/08/07 09:05:10;;;;;;;9.35;8.35;;;538.10;2406.40;;;;;;5077089;28;20028;-83
2023/08/07 09:07:37;;;;;;;10.35;9.32;;;538.20;2406.40;;;;;;5076628;28;20060;-84
2023/08/07 09:10:03;;;;;;;18.13;12.85;;;538.10;2406.40;;;;;;5075972;28;20029;-83
2023/08/07 09:12:32;;;;;;;12.93;9.13;;;538.50;2406.40;;;;;;5092541;28;20028;-84
2023/08/07 09:15:01;;;;;;;12.32;8.40;;;538.50;2406.40;;;;;;5077193;28;20045;-83
2023/08/07 09:17:34;;;;;;;12.90;8.10;;;;;;;;;;5075567;28;20036;-83
2023/08/07 09:20:00;;;;;;;8.98;7.85;;;;;;;;;;5092640;28;20029;-84
2023/08/07 09:22:26;;;;;;;8.63;7.38;;;;;;;;;;5092298;28;20021;-84
2023/08/07 09:24:52;;;;;;;10.75;6.88;;;;;;;;;;5076776;28;20020;-83
2023/08/07 09:27:18;;;;;;;11.93;7.47;;;;;;;;;;5092508;28;20459;-83
2023/08/07 09:29:47;;;;;;;6.47;5.32;;;;;;;;;;5092096;28;20058;-83
2023/08/07 09:32:13;;;;;;;9.85;5.50;;;;;;;;;;5076786;28;20072;-83
2023/08/07 09:34:40;;;;;;;8.07;5.47;;;;;;;;;;5092477;28;20017;-83
2023/08/07 09:37:07;;;;;;;6.03;4.90;;;;;;;;;;5077408;28;20052;-82
2023/08/07 09:39:35;;;;;;;5.10;4.43;;;;;;;;;;5095118;28;20050;-84
2023/08/07 09:42:01;;;;;;;7.10;4.65;;;;;;;;;;5095453;28;20054;-83
2023/08/07 09:44:35;;;;;;;6.30;4.45;;;;;;;;;;5096200;28;20460;-84
2023/08/07 09:47:11;;;;;;;6.22;4.45;;;;;;;;;;5096158;28;20020;-85
2023/08/07 09:49:37;;;;;;;7.80;3.97;;;;;;;;;;5096664;28;20024;-82
2023/08/07 09:52:07;;;;;;;5.90;4.22;;;;;;;;;;5095332;28;20455;-83
2023/08/07 09:54:33;;;;;;;8.13;5.22;;;;;;;;;;5095087;28;20440;-82
2023/08/07 09:57:00;;;;;;;5.95;4.53;;;;;;;;;;5094783;28;20034;-82
2023/08/07 09:59:27;;;;;;;5.20;3.95;;;;;;;;;;5094563;28;20024;-83
2023/08/07 10:01:53;;;;;;;5.60;4.30;;;;;;;;;;5094412;28;20016;-82
2023/08/07 10:04:20;;;;;;;6.15;4.13;;;;;;;;;;5094471;28;20142;-84
2023/08/07 10:06:47;;;;;;;6.30;3.85;;;;;;;;;;5094990;28;20107;-83
2023/08/07 10:09:13;;;;;;;6.03;4.38;;;;;;;;;;5094859;28;20111;-83
2023/08/07 10:11:40;;;;;;;5.88;4.32;;;;;;;;;;5093696;28;20020;-82
2023/08/07 10:14:06;;;;;;;6.05;4.55;;;;;;;;;;5094659;28;20040;-82
2023/08/07 10:16:32;;;;;;;9.93;5.10;;;;;;;;;;5094824;28;20020;-83
2023/08/07 10:18:58;;;;;;;8.45;4.50;;;;;;;;;;5094533;28;20031;-82
2023/08/07 10:21:25;;;;;;;7.20;4.05;;;;;;;;;;5094247;28;20034;-84
2023/08/07 10:23:54;;;;;;;6.72;4.75;;;;;;;;;;5094586;28;20372;-83
2023/08/07 10:26:22;;;;;;;7.20;4.93;;;;;;;;;;5094247;28;20046;-83
2023/08/07 10:28:50;;;;;;;8.02;4.60;;;;;;;;;;5094552;28;20046;-83
2023/08/07 10:31:16;;;;;;;7.13;5.10;;;;;;;;;;5094010;28;20020;-83
2023/08/07 10:33:43;;;;;;;5.82;5.07;;;;;;;;;;5094622;28;20016;-84
2023/08/07 10:36:10;;;;;;;5.00;4.47;;;;;;;;;;5094584;28;20016;-84
2023/08/07 10:38:37;;;;;;;5.80;3.80;;;;;;;;;;5096912;28;20082;-85
2023/08/07 10:41:06;;;;;;;6.15;4.13;;;;;;;;;;5094933;28;20184;-85
2023/08/07 10:43:37;;;;;;;5.25;4.40;;;;;;;;;;5095632;28;20008;-83
2023/08/07 10:46:04;;;;;;;7.53;4.20;;;;;;;;;;5094040;28;20383;-83
2023/08/07 10:48:30;;;;;;;5.00;3.90;;;;;;;;;;5096351;28;20097;-83
2023/08/07 10:51:15;;;;;;;6.55;3.88;;;;;;;;;;5096965;28;20043;-84
2023/08/07 10:53:44;;;;;;;6.00;4.95;;;;;;;;;;5086483;28;20185;-84
2023/08/07 10:56:15;;;;;;;5.63;4.38;;;;;;;;;;5094250;28;20028;-84
2023/08/07 10:58:42;;;;;;;5.93;4.60;;;;;;;;;;5095219;28;20380;-84
2023/08/07 11:01:22;;;;;;;6.32;4.38;;;;;;;;;;5094025;28;20050;-82
2023/08/07 11:04:01;;;;;;;5.88;4.05;;;;;;;;;;5094171;28;20482;-84
2023/08/07 11:06:31;;;;;;;4.95;3.83;;;;;;;;;;5094168;28;20057;-83
2023/08/07 11:08:57;;;;;;;7.07;4.47;;;;;;;;;;5094223;28;20380;-83
2023/08/07 11:11:23;;;;;;;7.15;5.00;;;;;;;;;;5093804;28;20016;-84
2023/08/07 11:13:50;;;;;;;5.93;4.18;;;;;;;;;;5093604;28;20060;-85
2023/08/07 11:16:17;;;;;;;6.80;4.57;;;;;;;;;;5095258;28;20016;-84
2023/08/07 11:18:43;;;;;;;5.40;4.13;;;;;;;;;;5093116;28;20024;-84
2023/08/07 11:21:10;;;;;;;5.65;4.10;;;;;;;;;;5093889;28;20111;-85
2023/08/07 11:23:37;;;;;;;6.63;4.38;;;;;;;;;;5093684;28;20025;-84
2023/08/07 11:26:03;;;;;;;5.75;3.72;;;;;;;;;;5093791;28;20016;-84
2023/08/07 11:28:29;;;;;;;5.18;3.75;;;;;;;;;;5115361;28;20082;-81
2023/08/07 11:30:56;;;;;;;6.65;4.13;;;;;;;;;;5099745;28;20047;-84
2023/08/07 11:33:24;;;;;;;6.10;4.45;;;;;;;;;;5094200;28;20103;-84
2023/08/07 11:35:50;;;;;;;9.30;4.93;;;;;;;;;;5093818;28;20475;-84
2023/08/07 11:38:34;;;;;;;9.15;4.40;;;;;;;;;;5097770;28;20491;-83
2023/08/07 11:41:00;;;;;;;6.03;3.95;;;;;;;;;;5114000;28;20469;-85
2023/08/07 11:43:30;;;;;;;6.45;4.82;;;;;;;;;;5113828;28;20035;-83
2023/08/07 11:46:01;;;;;;;8.68;5.03;;;;;;;;;;5102517;28;20081;-84
2023/08/07 11:48:28;;;;;;;9.38;4.93;;;;;;;;;;5093267;28;20024;-81
2023/08/07 11:50:54;;;;;;;10.60;5.25;;;;;;;;;;5093097;28;20028;-82
2023/08/07 11:53:21;;;;;;;8.63;5.47;;;;;;;;;;5096287;28;20502;-82
2023/08/07 11:55:48;;;;;;;5.50;4.07;;;;;;;;;;5113083;28;20032;-83
2023/08/07 11:58:14;;;;;;;4.72;3.10;;;;;;;;;;5093321;28;20030;-83
2023/08/07 12:00:45;;;;;;;6.28;4.28;;;;;;;;;;5092988;28;20450;-83
2023/08/07 12:03:29;;;;;;;5.90;3.58;;;;;;;;;;5092732;28;20028;-83
2023/08/07 12:05:56;;;;;;;5.97;4.03;;;;;;;;;;5085023;28;20081;-83
2023/08/07 12:08:23;;;;;;;7.18;5.00;;;;;;;;;;5074814;28;20111;-83
2023/08/07 12:10:50;;;;;;;5.25;3.55;;;;;;;;;;5092883;28;20028;-83
2023/08/07 12:13:16;;;;;;;6.85;4.70;;;;;;;;;;5092444;28;20047;-83
2023/08/07 12:15:42;;;;;;;4.57;3.42;;;;;;;;;;5093426;28;20043;-83
2023/08/07 12:18:08;;;;;;;5.78;4.20;;;;;;;;;;5092383;28;20426;-84
2023/08/07 12:20:35;;;;;;;5.10;2.97;;;;;;;;;;5092879;28;20039;-84
2023/08/07 12:23:01;;;;;;;6.18;2.75;;;;;;;;;;5093042;28;20021;-84
2023/08/07 12:25:27;;;;;;;4.75;2.63;;;;;;;;;;5093256;28;20093;-84
2023/08/07 12:27:53;;;;;;;4.38;2.80;;;;;;;;;;5093198;28;20020;-84
2023/08/07 12:30:19;;;;;;;5.13;2.53;;;;;;;;;;5093962;28;20027;-84
2023/08/07 12:32:45;;;;;;;4.43;2.75;;;;;;;;;;5093399;28;20035;-85
2023/08/07 12:35:11;;;;;;;4.65;2.80;;;;;;;;;;5096187;28;20024;-85
2023/08/07 12:37:37;;;;;;;6.50;4.95;;;;;;;;;;5097313;28;20038;-84
2023/08/07 12:40:05;;;;;;;8.25;4.65;;;;;;;;;;5097223;28;20055;-84
2023/08/07 12:42:31;;;;;;;6.05;3.65;;;;;;;;;;5097019;28;20021;-84
2023/08/07 12:44:58;;;;;;;5.40;3.50;;;;;;;;;;5096971;28;20043;-83